Time;durP1;ratioP1;P1;durP2;ratioP2;P2;SDS_P1;SDS_P2;PMS_P1;PMS_P2;Temp;Humidity;BMP_temperature;BMP_pressure;BME280_temperature;BME280_humidity;BME280_pressure;Samples;Min_cycle;Max_cycle;Signal;HPM_P1;HPM_P2
2021/06/30 00:01:57;;;;;;;15.32;8.80;;;;;;;19.79;73.34;96425.25;5114760;28;20077;-65
2021/06/30 00:04:23;;;;;;;9.93;7.75;;;;;;;19.80;73.20;96424.28;5114783;28;20027;-65
2021/06/30 00:06:48;;;;;;;10.48;7.93;;;;;;;19.76;73.34;96427.28;5114589;28;20040;-64
2021/06/30 00:09:16;;;;;;;11.02;9.40;;;;;;;19.71;73.03;96422.34;5114759;28;20098;-66
2021/06/30 00:11:42;;;;;;;10.85;8.90;;;;;;;19.71;73.13;96427.66;5114465;28;20023;-64
2021/06/30 00:14:09;;;;;;;12.18;9.27;;;;;;;19.70;73.17;96428.63;5114305;28;20023;-63
2021/06/30 00:16:35;;;;;;;11.85;8.00;;;;;;;19.68;72.96;96419.94;5114623;28;20023;-61
2021/06/30 00:19:04;;;;;;;13.20;9.52;;;;;;;19.64;74.03;96429.94;5114510;28;20380;-64
2021/06/30 00:21:30;;;;;;;12.75;9.65;;;;;;;19.63;73.68;96428.22;5114362;28;20019;-65
2021/06/30 00:23:56;;;;;;;15.75;9.23;;;;;;;19.63;73.65;96420.28;5114338;28;20023;-63
2021/06/30 00:26:21;;;;;;;11.88;7.93;;;;;;;19.62;73.32;96423.06;5114287;28;20081;-64
2021/06/30 00:28:47;;;;;;;12.23;8.52;;;;;;;19.61;72.78;96421.38;5114361;28;20020;-62
2021/06/30 00:31:14;;;;;;;11.55;7.70;;;;;;;19.51;72.82;96422.06;5114167;28;20022;-61
2021/06/30 00:33:39;;;;;;;21.48;9.20;;;;;;;19.45;73.77;96428.69;5114070;28;20474;-66
2021/06/30 00:36:05;;;;;;;12.00;8.90;;;;;;;19.45;74.90;96431.34;5114184;28;20103;-62
2021/06/30 00:38:30;;;;;;;11.05;9.60;;;;;;;19.44;74.17;96436.75;5114064;28;20019;-63
2021/06/30 00:40:56;;;;;;;9.35;7.47;;;;;;;19.47;73.82;96431.22;5114108;28;20405;-65
2021/06/30 00:43:22;;;;;;;14.40;8.10;;;;;;;19.44;73.40;96431.44;5113987;28;20027;-61
2021/06/30 00:45:48;;;;;;;9.30;7.22;;;;;;;19.43;73.01;96437.72;5113972;28;20594;-60
2021/06/30 00:48:15;;;;;;;12.68;7.80;;;;;;;19.36;73.79;96437.34;5113859;28;20469;-66
2021/06/30 00:50:41;;;;;;;16.60;8.35;;;;;;;19.34;73.59;96435.75;5113846;28;20023;-61
2021/06/30 00:53:07;;;;;;;7.63;6.93;;;;;;;19.35;73.36;96427.69;5113875;28;20031;-61
2021/06/30 00:55:32;;;;;;;13.27;9.30;;;;;;;19.34;73.37;96439.28;5113734;28;20034;-62
2021/06/30 00:57:58;;;;;;;8.20;6.60;;;;;;;19.34;72.94;96441.91;5113713;28;20019;-61
2021/06/30 01:00:24;;;;;;;11.65;8.23;;;;;;;19.36;72.47;96440.00;5113693;28;20096;-64
2021/06/30 01:02:50;;;;;;;9.55;7.72;;;;;;;19.36;72.95;96445.31;5113854;28;20102;-63
2021/06/30 01:05:16;;;;;;;10.57;7.63;;;;;;;19.33;72.82;96450.84;5113519;28;20039;-65
2021/06/30 01:07:44;;;;;;;15.70;8.23;;;;;;;19.34;73.03;96449.03;5113565;28;20545;-62
2021/06/30 01:10:10;;;;;;;10.45;7.13;;;;;;;19.31;72.75;96452.75;5113567;28;20028;-64
2021/06/30 01:12:36;;;;;;;8.43;7.40;;;;;;;19.31;73.01;96453.63;5113165;28;20016;-63
2021/06/30 01:15:04;;;;;;;8.50;6.55;;;;;;;19.31;72.76;96450.09;5113329;28;20537;-65
2021/06/30 01:17:30;;;;;;;10.02;8.43;;;;;;;19.25;72.96;96440.81;5113478;28;20026;-63
2021/06/30 01:19:55;;;;;;;13.57;7.65;;;;;;;19.23;72.91;96440.06;5113487;28;20023;-62
2021/06/30 01:22:24;;;;;;;13.20;8.43;;;;;;;19.17;73.48;96436.06;5113708;28;20033;-63
2021/06/30 01:24:52;;;;;;;12.98;8.00;;;;;;;19.21;73.00;96434.06;5113463;28;20024;-62
2021/06/30 01:27:19;;;;;;;15.63;8.48;;;;;;;19.14;73.71;96435.47;5113664;28;20020;-65
2021/06/30 01:29:45;;;;;;;8.82;6.78;;;;;;;19.14;73.61;96430.19;5113584;28;20031;-63
2021/06/30 01:32:11;;;;;;;9.93;7.65;;;;;;;19.11;73.27;96425.91;5113388;28;20477;-62
2021/06/30 01:34:37;;;;;;;13.43;7.03;;;;;;;19.06;73.67;96425.41;5113337;28;20035;-66
2021/06/30 01:37:03;;;;;;;14.07;7.90;;;;;;;19.04;73.34;96429.97;5113325;28;20020;-63
2021/06/30 01:39:28;;;;;;;9.20;6.72;;;;;;;18.99;73.48;96425.00;5113368;28;20026;-63
2021/06/30 01:41:54;;;;;;;10.60;7.60;;;;;;;18.99;73.59;96430.31;5113437;28;20076;-62
2021/06/30 01:44:20;;;;;;;10.15;7.50;;;;;;;19.00;73.50;96432.00;5113276;28;20054;-63
2021/06/30 01:46:46;;;;;;;14.27;8.98;;;;;;;18.96;73.60;96441.13;5113152;28;20031;-63
2021/06/30 01:49:12;;;;;;;9.73;7.88;;;;;;;19.00;73.35;96439.09;5113139;28;20019;-64
2021/06/30 01:51:38;;;;;;;9.20;7.55;;;;;;;18.98;74.44;96443.66;5113335;28;20026;-62
2021/06/30 01:54:11;;;;;;;18.05;9.50;;;;;;;18.98;74.73;96441.88;5113385;28;20422;-64
2021/06/30 01:56:37;;;;;;;11.90;7.85;;;;;;;18.99;74.44;96443.56;5113221;28;20118;-64
2021/06/30 01:59:13;;;;;;;13.45;8.73;;;;;;;18.93;74.07;96441.34;5113089;28;20472;-63
2021/06/30 02:01:40;;;;;;;10.13;7.55;;;;;;;18.88;73.95;96446.16;5113181;28;20499;-66
2021/06/30 02:04:06;;;;;;;12.05;8.07;;;;;;;18.87;73.90;96455.06;5113191;28;20011;-61
2021/06/30 02:06:38;;;;;;;9.30;6.25;;;;;;;18.89;73.83;96464.59;5113049;28;20067;-63
2021/06/30 02:09:10;;;;;;;9.85;7.07;;;;;;;18.84;73.73;96468.53;5113008;28;20477;-64
2021/06/30 02:11:36;;;;;;;11.30;7.85;;;;;;;18.76;74.81;96466.44;5113027;28;20031;-66
2021/06/30 02:14:04;;;;;;;11.38;8.88;;;;;;;18.71;74.73;96464.13;5112648;28;20032;-63
2021/06/30 02:16:29;;;;;;;11.18;7.30;;;;;;;18.69;74.75;96464.25;5113162;28;20030;-62
2021/06/30 02:18:55;;;;;;;13.00;8.50;;;;;;;18.67;74.93;96473.25;5113151;28;20099;-62
2021/06/30 02:21:21;;;;;;;9.77;7.38;;;;;;;18.66;74.43;96468.94;5112876;28;20441;-61
2021/06/30 02:23:46;;;;;;;13.55;7.85;;;;;;;18.68;74.53;96467.84;5112929;28;20035;-62
2021/06/30 02:26:12;;;;;;;6.95;6.25;;;;;;;18.69;74.02;96463.38;5116242;28;20509;-62
2021/06/30 02:28:38;;;;;;;11.48;7.78;;;;;;;18.68;74.32;96467.84;5116618;28;20445;-65
2021/06/30 02:31:04;;;;;;;9.20;6.63;;;;;;;18.71;74.49;96480.03;5116546;28;20027;-63
2021/06/30 02:33:29;;;;;;;10.48;7.85;;;;;;;18.72;74.14;96478.22;5116500;28;20220;-63
2021/06/30 02:35:55;;;;;;;11.73;7.05;;;;;;;18.71;73.88;96476.50;5116440;28;20440;-65
2021/06/30 02:38:21;;;;;;;12.23;8.02;;;;;;;18.70;73.86;96491.59;5116449;28;20026;-63
2021/06/30 02:40:47;;;;;;;8.45;7.38;;;;;;;18.68;74.03;96489.03;5116442;28;20023;-62
2021/06/30 02:43:13;;;;;;;13.63;9.77;;;;;;;18.63;75.26;96498.28;5116422;28;20410;-62
2021/06/30 02:45:39;;;;;;;13.32;7.70;;;;;;;18.54;75.54;96490.03;5116385;28;20032;-62
2021/06/30 02:48:05;;;;;;;10.30;8.43;;;;;;;18.41;75.73;96483.91;5116218;28;20161;-62
2021/06/30 02:50:31;;;;;;;10.80;8.45;;;;;;;18.43;76.03;96482.00;5116247;28;20469;-62
2021/06/30 02:52:56;;;;;;;12.68;9.68;;;;;;;18.43;76.28;96487.31;5116174;28;20024;-63
2021/06/30 02:55:22;;;;;;;9.73;8.07;;;;;;;18.46;75.60;96487.09;5116097;28;20113;-65
2021/06/30 02:57:49;;;;;;;12.13;8.27;;;;;;;18.49;75.55;96494.81;5115952;28;20020;-64
2021/06/30 03:00:21;;;;;;;11.43;7.25;;;;;;;18.51;74.65;96492.06;5115942;28;20016;-63
2021/06/30 03:02:48;;;;;;;16.83;7.65;;;;;;;18.54;74.48;96497.97;5115956;28;20107;-64
2021/06/30 03:05:14;;;;;;;10.13;6.95;;;;;;;18.57;74.58;96491.59;5115978;28;20090;-63
2021/06/30 03:07:39;;;;;;;8.88;7.88;;;;;;;18.59;74.31;96487.06;5115877;28;20107;-64
2021/06/30 03:10:07;;;;;;;9.45;7.22;;;;;;;18.60;74.34;96486.09;5115672;28;20031;-62
2021/06/30 03:12:34;;;;;;;11.80;8.25;;;;;;;18.59;74.80;96483.53;5115838;28;20024;-64
2021/06/30 03:15:00;;;;;;;12.35;7.45;;;;;;;18.64;75.26;96489.38;5115425;28;20393;-62
2021/06/30 03:17:25;;;;;;;13.07;9.38;;;;;;;18.68;75.22;96489.03;5115617;28;20084;-64
2021/06/30 03:19:51;;;;;;;7.63;6.88;;;;;;;18.76;74.60;96498.25;5115605;28;20023;-63
2021/06/30 03:22:16;;;;;;;13.20;7.78;;;;;;;18.83;74.30;96496.84;5115566;28;20032;-66
2021/06/30 03:24:42;;;;;;;11.20;7.38;;;;;;;18.87;73.99;96500.13;5115504;28;20027;-62
2021/06/30 03:27:08;;;;;;;15.48;8.85;;;;;;;18.87;74.48;96493.00;5115415;28;20039;-64
2021/06/30 03:29:33;;;;;;;8.05;7.10;;;;;;;19.00;74.00;96498.28;5115568;28;20070;-66
2021/06/30 03:31:59;;;;;;;10.02;7.88;;;;;;;19.13;73.48;96489.44;5115340;28;20019;-63
2021/06/30 03:34:25;;;;;;;9.25;7.18;;;;;;;19.28;73.91;96488.31;5115317;28;20019;-63
2021/06/30 03:36:50;;;;;;;10.15;7.90;;;;;;;19.52;73.64;96492.72;5114944;28;20023;-66
2021/06/30 03:39:16;;;;;;;11.07;7.20;;;;;;;19.82;72.69;96485.22;5115358;28;20024;-61
2021/06/30 03:41:41;;;;;;;8.90;7.28;;;;;;;20.07;72.03;96489.50;5115223;28;20023;-65
2021/06/30 03:44:07;;;;;;;8.05;6.43;;;;;;;20.32;70.00;96490.22;5115165;28;20030;-62
2021/06/30 03:46:33;;;;;;;9.32;6.22;;;;;;;20.52;70.09;96482.50;5114920;28;20411;-66
2021/06/30 03:48:58;;;;;;;8.30;5.53;;;;;;;20.79;69.48;96502.50;5115167;28;20024;-63
2021/06/30 03:51:24;;;;;;;6.63;5.22;;;;;;;21.10;68.55;96506.34;5115041;28;20027;-62
2021/06/30 03:53:50;;;;;;;8.45;5.15;;;;;;;21.34;67.71;96500.81;5115055;28;20022;-66
2021/06/30 03:56:15;;;;;;;11.02;6.05;;;;;;;21.64;67.33;96501.06;5114965;28;20073;-63
2021/06/30 03:58:41;;;;;;;8.88;5.60;;;;;;;21.91;66.93;96492.56;5114940;28;20019;-64
2021/06/30 04:01:07;;;;;;;8.23;5.75;;;;;;;22.24;66.65;96496.97;5114865;28;20027;-67
2021/06/30 04:03:32;;;;;;;9.02;5.47;;;;;;;22.57;66.08;96492.31;5114794;28;20469;-65
2021/06/30 04:05:58;;;;;;;5.95;5.35;;;;;;;22.84;65.03;96496.22;5096590;28;20035;-64
2021/06/30 04:08:24;;;;;;;6.38;5.05;;;;;;;23.10;64.61;96498.38;5114670;28;20055;-64
2021/06/30 04:10:50;;;;;;;5.47;4.97;;;;;;;23.38;63.89;96492.41;5114609;28;20019;-64
2021/06/30 04:13:16;;;;;;;7.82;4.72;;;;;;;23.65;63.26;96491.66;5114698;28;20100;-63
2021/06/30 04:15:43;;;;;;;8.93;4.97;;;;;;;23.96;62.20;96491.47;5114185;28;20094;-64
2021/06/30 04:18:09;;;;;;;11.38;5.30;;;;;;;24.26;61.30;96480.72;5114496;28;20023;-63
2021/06/30 04:20:34;;;;;;;10.68;5.40;;;;;;;24.52;60.34;96479.22;5114457;28;20058;-65
2021/06/30 04:23:00;;;;;;;8.02;4.90;;;;;;;24.73;60.45;96493.22;5114292;28;20035;-62
2021/06/30 04:25:25;;;;;;;8.02;5.45;;;;;;;24.99;60.34;96495.19;5114252;28;20073;-66
2021/06/30 04:27:52;;;;;;;5.97;5.43;;;;;;;25.16;60.03;96491.84;5114262;28;20034;-67
2021/06/30 04:30:17;;;;;;;6.25;5.50;;;;;;;25.41;59.83;96492.09;5114238;28;20034;-63
2021/06/30 04:32:43;;;;;;;7.25;5.40;;;;;;;25.71;59.00;96493.53;5114138;28;20036;-63
2021/06/30 04:35:10;;;;;;;6.60;5.18;;;;;;;25.95;58.54;96478.63;5114108;28;20472;-61
2021/06/30 04:37:35;;;;;;;9.48;5.40;;;;;;;26.24;57.58;96482.00;5114092;28;20016;-63
2021/06/30 04:40:03;;;;;;;8.48;5.70;;;;;;;26.54;56.80;96477.16;5114137;28;20027;-64
2021/06/30 04:42:28;;;;;;;10.45;5.10;;;;;;;26.84;56.26;96484.78;5114072;28;20023;-63
2021/06/30 04:44:54;;;;;;;8.73;5.72;;;;;;;27.02;55.17;96490.09;5113973;28;20019;-65
2021/06/30 04:47:19;;;;;;;6.57;4.80;;;;;;;27.37;55.71;96492.69;5113302;28;20023;-61
2021/06/30 04:49:45;;;;;;;6.80;5.03;;;;;;;27.66;55.35;96493.22;5113931;28;20034;-64
2021/06/30 04:52:11;;;;;;;5.35;4.82;;;;;;;27.87;54.93;96493.53;5113979;28;20049;-63
2021/06/30 04:54:37;;;;;;;6.65;5.72;;;;;;;28.11;54.13;96499.06;5113975;28;20024;-61
2021/06/30 04:57:02;;;;;;;6.88;5.07;;;;;;;28.40;53.80;96491.44;5113714;28;20027;-63
2021/06/30 04:59:28;;;;;;;5.60;4.85;;;;;;;28.61;53.64;96499.81;5113707;28;20031;-61
2021/06/30 05:01:53;;;;;;;7.57;5.55;;;;;;;28.81;52.94;96498.53;5113650;28;20034;-62
2021/06/30 05:04:20;;;;;;;8.15;5.75;;;;;;;29.07;51.58;96500.13;5113794;28;20020;-67
2021/06/30 05:06:46;;;;;;;8.68;5.80;;;;;;;29.29;51.17;96501.19;5113537;28;20056;-66
2021/06/30 05:09:13;;;;;;;7.35;5.57;;;;;;;29.48;49.71;96499.00;5113679;28;20019;-65
2021/06/30 05:11:39;;;;;;;7.35;5.25;;;;;;;29.69;50.06;96498.38;5113509;28;20027;-62
2021/06/30 05:14:05;;;;;;;11.13;6.20;;;;;;;29.91;49.95;96495.00;5113310;28;20465;-65
2021/06/30 05:16:30;;;;;;;12.10;5.57;;;;;;;30.04;50.57;96497.06;5113617;28;20032;-64
2021/06/30 05:18:57;;;;;;;7.05;5.43;;;;;;;30.16;48.71;96498.34;5113652;28;20075;-64
2021/06/30 05:21:24;;;;;;;9.00;5.45;;;;;;;30.34;48.66;96491.75;5113544;28;20473;-66
2021/06/30 05:23:50;;;;;;;6.13;5.60;;;;;;;30.50;49.18;96496.97;5113536;28;20026;-68
2021/06/30 05:26:15;;;;;;;7.03;5.40;;;;;;;30.74;48.71;96491.44;5113480;28;20023;-65
2021/06/30 05:28:41;;;;;;;6.20;5.50;;;;;;;30.95;49.58;96496.09;5113438;28;20393;-63
2021/06/30 05:31:07;;;;;;;8.93;5.50;;;;;;;31.15;48.33;96507.13;5113430;28;20020;-66
2021/06/30 05:33:33;;;;;;;10.80;6.40;;;;;;;31.34;47.90;96501.28;5113415;28;20031;-68
2021/06/30 05:35:58;;;;;;;7.50;6.75;;;;;;;31.52;47.05;96495.47;5113323;28;20049;-66
2021/06/30 05:38:24;;;;;;;11.15;7.90;;;;;;;31.49;47.17;96502.13;5113225;28;20099;-64
2021/06/30 05:40:50;;;;;;;12.57;8.02;;;;;;;31.69;46.96;96500.63;5113395;28;20069;-66
2021/06/30 05:43:16;;;;;;;11.27;7.85;;;;;;;31.82;46.82;96502.59;5113316;28;20106;-68
2021/06/30 05:45:42;;;;;;;12.48;7.95;;;;;;;31.96;46.64;96509.00;5113247;28;20024;-66
2021/06/30 05:48:08;;;;;;;10.88;7.78;;;;;;;32.16;46.40;96495.63;5113158;28;20023;-69
2021/06/30 05:50:34;;;;;;;9.13;7.32;;;;;;;32.38;45.93;96503.66;5094975;28;20431;-62
2021/06/30 05:53:00;;;;;;;11.60;6.88;;;;;;;32.51;45.31;96500.25;5113298;28;20015;-64
2021/06/30 05:55:26;;;;;;;9.45;6.82;;;;;;;32.69;44.88;96499.72;5113193;28;20103;-68
2021/06/30 05:57:51;;;;;;;7.47;5.93;;;;;;;32.88;43.96;96497.28;5113124;28;20119;-66
2021/06/30 06:00:20;;;;;;;6.80;6.10;;;;;;;32.98;44.85;96492.31;5116831;28;20094;-67
2021/06/30 06:02:49;;;;;;;9.73;6.78;;;;;;;33.07;42.23;96490.28;5117084;28;20023;-64
2021/06/30 06:05:15;;;;;;;9.35;6.28;;;;;;;33.19;41.05;96490.53;5098767;28;20077;-63
2021/06/30 06:07:41;;;;;;;6.72;6.07;;;;;;;33.26;40.70;96490.56;5117071;28;20020;-67
2021/06/30 06:10:09;;;;;;;7.90;5.80;;;;;;;33.38;42.10;96498.94;5117032;28;20073;-68
2021/06/30 06:12:35;;;;;;;8.98;5.78;;;;;;;33.60;41.99;96491.50;5116957;28;20106;-61
2021/06/30 06:15:01;;;;;;;7.78;6.03;;;;;;;33.78;41.93;96490.88;5116607;28;20446;-66
2021/06/30 06:17:27;;;;;;;9.35;6.15;;;;;;;33.85;42.62;96488.16;5116859;28;20040;-67
2021/06/30 06:19:52;;;;;;;6.35;5.35;;;;;;;33.93;41.60;96489.00;5116920;28;20043;-62
2021/06/30 06:22:18;;;;;;;7.82;5.40;;;;;;;34.05;41.14;96490.03;5116823;28;20110;-62
2021/06/30 06:24:44;;;;;;;8.82;5.97;;;;;;;34.25;39.98;96483.78;5116904;28;20104;-66
2021/06/30 06:27:11;;;;;;;8.18;5.40;;;;;;;34.28;40.65;96480.66;5098294;28;20019;-68
2021/06/30 06:29:37;;;;;;;6.82;6.13;;;;;;;34.19;41.49;96490.88;5116725;28;20023;-66
2021/06/30 06:32:04;;;;;;;8.15;5.50;;;;;;;34.33;40.26;96488.13;5116635;28;20031;-67
2021/06/30 06:34:30;;;;;;;6.65;5.47;;;;;;;34.52;40.54;96489.16;5116692;28;20027;-64
2021/06/30 06:36:59;;;;;;;9.85;5.93;;;;;;;34.58;39.91;96491.00;5116466;28;20024;-65
2021/06/30 06:39:26;;;;;;;7.37;5.70;;;;;;;34.54;40.08;96495.19;5116484;28;20029;-65
2021/06/30 06:41:52;;;;;;;9.98;6.10;;;;;;;34.69;39.17;96492.25;5116432;28;20311;-64
2021/06/30 06:44:18;;;;;;;7.82;6.53;;;;;;;34.83;39.86;96492.19;5116476;28;20427;-65
2021/06/30 06:46:44;;;;;;;6.68;6.07;;;;;;;34.99;39.27;96494.44;5116246;28;20118;-68
2021/06/30 06:49:10;;;;;;;9.40;6.47;;;;;;;35.19;39.16;96492.69;5116164;28;20015;-68
2021/06/30 06:51:37;;;;;;;10.75;6.80;;;;;;;35.30;40.18;96497.44;5116235;28;20034;-64
2021/06/30 06:54:03;;;;;;;9.75;6.97;;;;;;;35.38;39.49;96491.75;5116293;28;20024;-64
2021/06/30 06:56:29;;;;;;;9.23;6.50;;;;;;;35.32;39.81;96489.06;5116186;28;20015;-65
2021/06/30 06:58:55;;;;;;;10.15;6.93;;;;;;;35.42;37.87;96492.97;5116199;28;20027;-66
2021/06/30 07:01:22;;;;;;;9.30;6.93;;;;;;;35.28;38.75;96489.50;5115989;28;20024;-63
2021/06/30 07:03:48;;;;;;;14.40;8.10;;;;;;;35.25;39.64;96484.53;5115878;28;20020;-67
2021/06/30 07:06:13;;;;;;;12.68;6.35;;;;;;;35.40;38.57;96491.53;5116007;28;20454;-62
2021/06/30 07:08:39;;;;;;;12.55;7.00;;;;;;;35.53;37.67;96485.16;5115955;28;20020;-61
2021/06/30 07:11:08;;;;;;;8.55;7.07;;;;;;;35.74;38.75;96488.59;5115232;28;20024;-65
2021/06/30 07:13:34;;;;;;;10.32;7.20;;;;;;;35.80;37.96;96493.16;5115800;28;20162;-66
2021/06/30 07:15:59;;;;;;;10.00;7.95;;;;;;;35.89;38.00;96494.56;5115480;28;20525;-66
2021/06/30 07:18:25;;;;;;;13.05;8.20;;;;;;;35.40;36.36;96481.47;5115755;28;20043;-67
2021/06/30 07:20:52;;;;;;;9.27;8.13;;;;;;;35.07;38.92;96484.38;5115563;28;20020;-63
2021/06/30 07:23:17;;;;;;;12.00;8.07;;;;;;;34.47;37.90;96476.22;5115704;28;20114;-64
2021/06/30 07:25:44;;;;;;;10.13;7.45;;;;;;;34.20;38.01;96479.00;5115644;28;20104;-66
2021/06/30 07:28:09;;;;;;;10.85;8.43;;;;;;;33.88;39.63;96484.19;5115557;28;20418;-66
2021/06/30 07:30:35;;;;;;;10.98;9.02;;;;;;;33.65;41.39;96480.84;5115556;28;20051;-67
2021/06/30 07:33:02;;;;;;;11.40;8.27;;;;;;;33.65;41.67;96482.75;5115512;28;20061;-62
2021/06/30 07:35:28;;;;;;;12.60;8.63;;;;;;;33.60;42.12;96477.09;5115554;28;20045;-65
2021/06/30 07:37:54;;;;;;;14.52;8.27;;;;;;;33.42;40.90;96473.09;5115371;28;20032;-63
2021/06/30 07:40:19;;;;;;;9.40;7.85;;;;;;;33.70;42.34;96474.81;5115320;28;20458;-67
2021/06/30 07:42:45;;;;;;;10.73;7.90;;;;;;;34.08;41.89;96478.78;5115275;28;20027;-66
2021/06/30 07:45:11;;;;;;;11.88;7.53;;;;;;;34.41;40.68;96475.16;5115097;28;20473;-63
2021/06/30 07:47:37;;;;;;;12.68;7.35;;;;;;;34.59;40.46;96478.25;5115283;28;20069;-65
2021/06/30 07:50:05;;;;;;;8.65;6.85;;;;;;;34.53;40.73;96471.81;5115006;28;20028;-62
2021/06/30 07:52:30;;;;;;;8.30;7.50;;;;;;;34.66;41.70;96462.81;5114998;28;20481;-62
2021/06/30 07:54:56;;;;;;;9.90;7.00;;;;;;;34.40;37.94;96464.56;5114822;28;20030;-65
2021/06/30 07:57:22;;;;;;;11.88;7.38;;;;;;;33.89;41.36;96473.13;5115102;28;20103;-67
2021/06/30 07:59:47;;;;;;;10.90;7.20;;;;;;;33.87;42.30;96466.25;5114905;28;20362;-64
2021/06/30 08:02:13;;;;;;;8.30;6.97;;;;;;;34.08;40.61;96464.34;5114889;28;20016;-65
2021/06/30 08:04:38;;;;;;;13.18;7.43;;;;;;;34.09;42.31;96469.56;5114684;28;20381;-66
2021/06/30 08:07:04;;;;;;;10.45;8.00;;;;;;;34.35;40.34;96472.47;5114757;28;20063;-63
2021/06/30 08:09:34;;;;;;;11.52;7.22;;;;;;;34.68;40.13;96463.44;5114886;28;20012;-65
2021/06/30 08:12:02;;;;;;;11.38;7.22;;;;;;;34.80;40.75;96460.88;5114704;28;20444;-65
2021/06/30 08:14:28;;;;;;;9.57;7.20;;;;;;;34.79;38.80;96460.03;5114309;28;20036;-65
2021/06/30 08:16:54;;;;;;;19.00;7.15;;;;;;;34.72;37.31;96467.38;5114609;28;20445;-64
2021/06/30 08:19:20;;;;;;;9.20;7.53;;;;;;;34.22;37.60;96466.03;5114687;28;20106;-65
2021/06/30 08:21:45;;;;;;;11.02;7.82;;;;;;;33.91;39.77;96462.06;5113775;28;20059;-66
2021/06/30 08:24:11;;;;;;;10.32;7.93;;;;;;;33.75;39.42;96466.91;5114047;28;20020;-67
2021/06/30 08:26:37;;;;;;;9.52;7.68;;;;;;;33.70;41.60;96469.38;5114238;28;20023;-63
2021/06/30 08:29:03;;;;;;;10.18;7.57;;;;;;;33.74;41.10;96473.34;5114282;28;20026;-65
2021/06/30 08:31:29;;;;;;;10.05;6.88;;;;;;;33.73;39.90;96476.25;5114540;28;20145;-63
2021/06/30 08:33:54;;;;;;;8.73;7.13;;;;;;;33.71;39.34;96475.66;5114372;28;20090;-64
2021/06/30 08:36:20;;;;;;;9.43;7.28;;;;;;;33.76;39.56;96468.56;5114243;28;20096;-67
2021/06/30 08:38:46;;;;;;;12.48;8.00;;;;;;;33.78;39.62;96461.06;5114423;28;20026;-63
2021/06/30 08:41:11;;;;;;;9.77;7.78;;;;;;;33.93;42.21;96467.28;5114148;28;20537;-66
2021/06/30 08:43:37;;;;;;;12.02;7.65;;;;;;;34.08;39.74;96462.50;5114100;28;20065;-61
2021/06/30 08:46:03;;;;;;;11.85;7.95;;;;;;;34.22;40.14;96463.31;5114084;28;20385;-66
2021/06/30 08:48:29;;;;;;;12.68;7.35;;;;;;;34.59;42.44;96462.81;5095976;28;20044;-65
2021/06/30 08:50:59;;;;;;;9.98;7.50;;;;;;;34.79;40.19;96462.75;5113953;28;20027;-66
2021/06/30 08:53:26;;;;;;;10.52;7.35;;;;;;;34.86;39.49;96472.75;5113888;28;20049;-66
2021/06/30 08:55:51;;;;;;;10.23;7.30;;;;;;;34.98;39.53;96476.47;5113974;28;20028;-64
2021/06/30 08:58:17;;;;;;;9.57;8.10;;;;;;;34.94;39.38;96463.53;5113942;28;20019;-65
2021/06/30 09:00:43;;;;;;;8.40;7.57;;;;;;;35.20;39.54;96461.75;5113939;28;20028;-64
2021/06/30 09:03:16;;;;;;;12.75;7.82;;;;;;;35.37;37.92;96452.03;5113738;28;20074;-64
2021/06/30 09:08:43;;;;;;;13.60;7.78;;;;;;;34.94;39.56;96450.78;5113728;28;20038;-65
2021/06/30 09:11:12;;;;;;;10.35;7.63;;;;;;;35.12;39.24;96452.78;5084603;28;20048;-66
2021/06/30 09:13:38;;;;;;;8.30;7.40;;;;;;;35.10;38.50;96454.06;5113804;28;20595;-64
2021/06/30 09:16:04;;;;;;;11.18;8.05;;;;;;;34.94;39.42;96453.50;5113312;28;20089;-64
2021/06/30 09:18:35;;;;;;;11.50;7.28;;;;;;;35.04;40.02;96459.28;5113590;28;20043;-63
2021/06/30 09:21:20;;;;;;;13.82;7.95;;;;;;;34.84;38.41;96453.13;5113663;28;20043;-67
2021/06/30 09:24:06;;;;;;;15.88;7.63;;;;;;;34.36;38.31;96447.00;5113647;28;20076;-62
2021/06/30 09:26:35;;;;;;;9.88;7.57;;;;;;;33.82;39.24;96453.31;5113501;28;20110;-65
2021/06/30 09:29:11;;;;;;;15.65;7.85;;;;;;;33.03;41.32;96449.22;5113437;28;20385;-63
2021/06/30 09:31:42;;;;;;;16.35;7.22;;;;;;;32.68;41.00;96448.50;5113653;28;20028;-65
2021/06/30 09:34:08;;;;;;;8.10;7.18;;;;;;;32.74;44.85;96448.50;5115431;28;20031;-65
2021/06/30 09:37:11;;;;;;;11.02;7.63;;;;;;;32.78;40.43;96440.81;5117776;28;20048;-63
2021/06/30 09:39:54;;;;;;;8.45;6.95;;;;;;;32.98;44.04;96432.75;5101314;28;20047;-63
2021/06/30 09:42:22;;;;;;;11.55;7.68;;;;;;;32.79;42.70;96434.38;5117687;28;20023;-61
2021/06/30 09:44:48;;;;;;;11.50;7.55;;;;;;;32.72;42.22;96433.50;5117770;28;20024;-65
2021/06/30 09:47:14;;;;;;;12.18;7.47;;;;;;;32.60;42.11;96428.66;5117457;28;20503;-64
2021/06/30 09:49:41;;;;;;;10.27;7.78;;;;;;;32.42;43.26;96422.94;5117514;28;20027;-68
2021/06/30 09:52:10;;;;;;;11.95;7.93;;;;;;;32.48;43.13;96420.28;5117452;28;20032;-66
2021/06/30 09:54:42;;;;;;;10.13;8.00;;;;;;;32.60;46.54;96419.72;5117388;28;20477;-66
2021/06/30 09:57:10;;;;;;;12.48;7.47;;;;;;;32.58;44.33;96409.09;5117279;28;20080;-68
2021/06/30 09:59:41;;;;;;;10.57;6.93;;;;;;;32.66;46.41;96405.38;5117209;28;20020;-64
2021/06/30 10:02:07;;;;;;;11.45;7.97;;;;;;;32.19;42.96;96403.25;5117295;28;20027;-63
2021/06/30 10:04:38;;;;;;;11.40;7.63;;;;;;;31.92;42.98;96402.22;5117086;28;20027;-61
2021/06/30 10:07:05;;;;;;;14.30;7.95;;;;;;;31.82;43.52;96402.59;5116995;28;20465;-65
2021/06/30 10:09:32;;;;;;;11.90;7.85;;;;;;;31.70;45.04;96400.44;5098872;28;20035;-62
2021/06/30 10:11:57;;;;;;;11.25;8.00;;;;;;;31.62;43.26;96398.72;5117165;28;20095;-61
2021/06/30 10:14:24;;;;;;;15.40;8.10;;;;;;;31.55;44.36;96391.56;5116777;28;20071;-61
2021/06/30 10:16:50;;;;;;;11.25;8.68;;;;;;;31.52;46.48;96396.31;5116881;28;20449;-63
2021/06/30 10:19:17;;;;;;;8.88;7.93;;;;;;;31.64;43.73;96391.22;5116875;28;20054;-64
2021/06/30 10:21:43;;;;;;;11.32;7.95;;;;;;;31.82;46.00;96389.91;5116882;28;20024;-66
2021/06/30 10:24:09;;;;;;;10.70;7.63;;;;;;;31.83;43.76;96396.13;5116680;28;20031;-60
2021/06/30 10:26:35;;;;;;;15.18;8.25;;;;;;;31.76;44.99;96396.91;5116693;28;20038;-63
2021/06/30 10:29:02;;;;;;;9.90;8.00;;;;;;;31.77;45.48;96392.34;5116645;28;20019;-66
2021/06/30 10:31:35;;;;;;;10.10;8.55;;;;;;;32.04;46.92;96389.88;5116681;28;20016;-63
2021/06/30 10:34:09;;;;;;;12.55;8.40;;;;;;;32.26;47.86;96392.47;5116559;28;20469;-62
2021/06/30 10:36:45;;;;;;;10.35;8.18;;;;;;;32.34;45.19;96391.47;5116522;28;20063;-66
2021/06/30 10:39:12;;;;;;;15.90;8.77;;;;;;;32.25;43.79;96390.81;5116585;28;20026;-66
2021/06/30 10:41:54;;;;;;;13.50;8.65;;;;;;;32.22;45.61;96383.94;5116606;28;20022;-64
2021/06/30 10:44:25;;;;;;;14.60;9.48;;;;;;;31.95;43.51;96388.34;5116430;28;20049;-66
2021/06/30 10:46:53;;;;;;;14.98;9.40;;;;;;;31.90;43.71;96380.78;5115317;28;20031;-63
2021/06/30 10:49:21;;;;;;;14.95;8.63;;;;;;;31.92;47.47;96386.88;5116319;28;20106;-65
2021/06/30 10:51:56;;;;;;;10.70;8.18;;;;;;;32.07;46.31;96370.53;5116421;28;20027;-63
2021/06/30 10:54:42;;;;;;;12.25;8.95;;;;;;;32.12;44.84;96369.94;5116167;28;20023;-63
2021/06/30 10:57:25;;;;;;;12.07;7.97;;;;;;;31.94;45.75;96374.00;5116128;28;20035;-67
2021/06/30 11:00:03;;;;;;;11.93;8.77;;;;;;;31.88;45.42;96372.06;5116189;28;20056;-63
2021/06/30 11:02:33;;;;;;;19.33;8.93;;;;;;;31.71;45.22;96366.13;5116103;28;20027;-66
2021/06/30 11:05:14;;;;;;;12.32;8.77;;;;;;;31.77;44.72;96363.47;5116181;28;20026;-65
2021/06/30 11:07:42;;;;;;;13.07;9.02;;;;;;;31.85;46.47;96356.25;5115997;28;20028;-66
2021/06/30 11:10:16;;;;;;;10.85;8.50;;;;;;;31.75;46.10;96362.81;5115950;28;20012;-63
2021/06/30 11:12:59;;;;;;;13.30;8.90;;;;;;;31.77;44.82;96354.53;5115922;28;20032;-63
2021/06/30 11:15:39;;;;;;;9.82;8.60;;;;;;;31.98;47.58;96347.38;5115693;28;20090;-65
2021/06/30 11:18:25;;;;;;;13.15;8.45;;;;;;;32.24;46.44;96346.69;5115702;28;20036;-62
2021/06/30 11:21:01;;;;;;;12.02;7.93;;;;;;;32.20;42.89;96353.53;5115758;28;20023;-61
2021/06/30 11:23:29;;;;;;;9.32;8.40;;;;;;;32.09;44.46;96341.44;5115662;28;20024;-62
2021/06/30 11:26:16;;;;;;;8.60;7.80;;;;;;;31.84;44.45;96349.19;5115507;28;20020;-63
2021/06/30 11:28:41;;;;;;;10.48;8.57;;;;;;;31.90;45.76;96353.75;5115523;28;20023;-63
2021/06/30 11:31:42;;;;;;;10.30;9.13;;;;;;;31.73;43.83;96353.25;5115499;28;20024;-64
2021/06/30 11:34:23;;;;;;;12.82;9.00;;;;;;;31.77;47.54;96349.97;5013003;28;20053;-63